Time;durP1;ratioP1;P1;durP2;ratioP2;P2;SDS_P1;SDS_P2;PMS_P1;PMS_P2;Temp;Humidity;BMP_temperature;BMP_pressure;BME280_temperature;BME280_humidity;BME280_pressure;Samples;Min_cycle;Max_cycle;Signal;HPM_P1;HPM_P2
2023/07/31 00:02:05;;;;;;;24.48;21.98;;;;;;;21.40;100.00;97277.03;10279809;28;20030;-52
2023/07/31 00:07:06;;;;;;;22.27;20.08;;;;;;;21.42;100.00;97272.53;10279290;28;20040;-51
2023/07/31 00:12:05;;;;;;;23.08;20.75;;;;;;;21.35;100.00;97248.22;10278645;28;20074;-51
2023/07/31 00:17:04;;;;;;;23.00;20.77;;;;;;;21.53;100.00;97262.25;10280096;28;20080;-48
2023/07/31 00:22:04;;;;;;;23.35;21.13;;;;;;;21.59;100.00;97266.34;10277389;28;20101;-51
2023/07/31 00:27:03;;;;;;;23.33;20.90;;;;;;;21.61;100.00;97256.56;10279383;28;20062;-51
2023/07/31 00:32:02;;;;;;;21.67;19.65;;;;;;;21.57;100.00;97245.31;10278008;28;20121;-52
2023/07/31 00:37:01;;;;;;;21.08;18.90;;;;;;;21.55;100.00;97242.75;10279557;28;20549;-52
2023/07/31 00:42:00;;;;;;;21.45;19.35;;;;;;;21.43;100.00;97239.91;10283365;28;20541;-52
2023/07/31 00:46:59;;;;;;;18.35;16.55;;;;;;;21.12;99.22;97183.44;10286179;28;20571;-52
2023/07/31 00:51:59;;;;;;;16.27;14.68;;;;;;;21.23;98.58;97198.75;10284882;28;20116;-50
2023/07/31 00:56:59;;;;;;;14.57;13.18;;;;;;;21.20;98.36;97188.31;10286944;28;20112;-51
2023/07/31 01:01:58;;;;;;;15.10;13.63;;;;;;;21.05;98.43;97187.31;10284819;28;20062;-51
2023/07/31 01:07:18;;;;;;;19.75;16.63;;;;;;;20.99;98.64;97203.50;10285973;28;20529;-51
2023/07/31 01:12:17;;;;;;;19.67;17.55;;;;;;;20.73;99.02;97158.22;10283311;28;20096;-49
2023/07/31 01:17:16;;;;;;;19.58;17.65;;;;;;;20.95;99.23;97197.50;10284461;28;20482;-52
2023/07/31 01:22:21;;;;;;;20.67;18.55;;;;;;;20.83;100.00;97184.97;10285247;28;20546;-50
2023/07/31 01:27:33;;;;;;;20.50;18.40;;;;;;;20.86;100.00;97177.72;10286169;28;20488;-51
2023/07/31 01:32:32;;;;;;;19.88;17.98;;;;;;;20.85;99.81;97168.13;10286688;28;20126;-52
2023/07/31 01:37:31;;;;;;;20.10;18.00;;;;;;;20.81;99.80;97171.00;10287264;28;20069;-50
2023/07/31 01:42:30;;;;;;;18.42;16.63;;;;;;;20.75;99.16;97169.53;10287391;28;20061;-49
2023/07/31 01:47:29;;;;;;;17.27;15.55;;;;;;;20.37;98.55;97145.06;10287415;28;20038;-51
2023/07/31 01:52:29;;;;;;;24.38;21.88;;;;;;;20.62;99.37;97185.13;10285994;28;20416;-51
2023/07/31 01:57:29;;;;;;;28.20;25.25;;;;;;;20.58;100.00;97178.28;10286950;28;20062;-50
2023/07/31 02:02:27;;;;;;;27.58;24.80;;;;;;;20.57;100.00;97175.75;10286706;28;20073;-50
2023/07/31 02:07:26;;;;;;;27.85;25.05;;;;;;;20.57;100.00;97179.22;10286808;28;20034;-51
2023/07/31 02:12:25;;;;;;;29.90;26.85;;;;;;;20.21;100.00;97130.06;10286167;28;20113;-52
2023/07/31 02:17:24;;;;;;;32.53;29.20;;;;;;;20.57;100.00;97200.31;10285193;28;20036;-51
2023/07/31 02:22:23;;;;;;;34.00;30.40;;;;;;;20.55;100.00;97210.09;10286273;28;20508;-50
2023/07/31 02:27:27;;;;;;;33.85;30.33;;;;;;;20.03;100.00;97123.91;10284131;28;20346;-50
2023/07/31 02:32:25;;;;;;;33.83;29.95;;;;;;;20.57;100.00;97213.50;10280825;28;20076;-49
2023/07/31 02:37:25;;;;;;;30.85;27.60;;;;;;;20.63;100.00;97218.47;10282699;28;20026;-52
2023/07/31 02:42:24;;;;;;;30.27;27.33;;;;;;;20.69;100.00;97228.69;10279229;28;20072;-52
2023/07/31 02:47:23;;;;;;;25.13;22.80;;;;;;;20.76;100.00;97223.13;10282942;28;20022;-51
2023/07/31 02:52:22;;;;;;;23.20;20.98;;;;;;;20.78;100.00;97208.09;10281218;28;20029;-49
2023/07/31 02:57:21;;;;;;;21.33;18.95;;;;;;;20.76;100.00;97207.31;10279972;28;20032;-51
2023/07/31 03:02:20;;;;;;;21.38;19.10;;;;;;;20.71;100.00;97187.28;10281902;28;20404;-51
2023/07/31 03:07:19;;;;;;;19.85;17.95;;;;;;;20.67;99.37;97188.38;10277613;28;20034;-50
2023/07/31 03:12:19;;;;;;;22.27;19.98;;;;;;;20.52;98.72;97204.97;10281367;28;20040;-51
2023/07/31 03:17:18;;;;;;;23.13;20.73;;;;;;;20.42;98.50;97214.25;10279771;28;20125;-51
2023/07/31 03:22:17;;;;;;;23.02;20.63;;;;;;;20.36;98.92;97219.81;10281192;28;20124;-52
2023/07/31 03:27:16;;;;;;;23.65;20.85;;;;;;;20.38;99.08;97228.50;10281275;28;20086;-50
2023/07/31 03:32:15;;;;;;;24.42;21.83;;;;;;;20.31;99.76;97233.19;10283765;28;20061;-49
2023/07/31 03:37:14;;;;;;;23.55;21.13;;;;;;;20.37;100.00;97238.16;10283417;28;20030;-49
2023/07/31 03:42:13;;;;;;;24.27;20.80;;;;;;;20.37;100.00;97235.50;10283245;28;20029;-49
2023/07/31 03:47:12;;;;;;;26.60;22.33;;;;;;;19.89;100.00;97194.81;10285585;28;20041;-52
2023/07/31 03:52:11;;;;;;;24.63;21.88;;;;;;;20.25;100.00;97238.75;10283423;28;20108;-51
2023/07/31 03:57:11;;;;;;;25.58;22.88;;;;;;;20.31;100.00;97253.44;10281660;28;20428;-51
2023/07/31 04:02:10;;;;;;;20.38;18.30;;;;;;;20.37;100.00;97242.56;10282371;28;20459;-51
2023/07/31 04:07:09;;;;;;;20.38;18.33;;;;;;;20.41;100.00;97249.44;10282549;28;20555;-51
2023/07/31 04:12:08;;;;;;;19.33;17.38;;;;;;;20.54;99.92;97262.88;10281297;28;20385;-52
2023/07/31 04:17:07;;;;;;;20.60;18.40;;;;;;;20.62;98.12;97253.66;10287564;28;20057;-52
2023/07/31 04:22:06;;;;;;;19.90;17.80;;;;;;;20.65;97.97;97255.28;10290098;28;20039;-50
2023/07/31 04:27:05;;;;;;;22.25;18.85;;;;;;;20.70;98.42;97248.88;10290186;28;20417;-51
2023/07/31 04:32:04;;;;;;;21.10;19.00;;;;;;;20.79;98.16;97251.97;10283060;28;20494;-50
2023/07/31 04:37:03;;;;;;;22.15;20.05;;;;;;;20.84;98.42;97247.31;10284577;28;20100;-50
2023/07/31 04:42:02;;;;;;;21.10;18.92;;;;;;;20.95;97.71;97266.09;10286239;28;20113;-52
2023/07/31 04:47:02;;;;;;;20.83;18.77;;;;;;;20.52;97.43;97165.44;10284793;28;20142;-52
2023/07/31 04:52:01;;;;;;;20.52;18.38;;;;;;;20.94;96.81;97209.00;10285928;28;20069;-49
2023/07/31 04:57:00;;;;;;;20.95;18.63;;;;;;;21.32;97.04;97248.41;10284569;28;20137;-51
2023/07/31 05:01:59;;;;;;;20.30;17.23;;;;;;;21.48;95.27;97254.56;10283360;28;20045;-52
2023/07/31 05:06:58;;;;;;;19.02;17.13;;;;;;;21.41;95.08;97250.56;10257853;28;20171;-52
2023/07/31 05:11:57;;;;;;;19.58;17.48;;;;;;;21.36;95.16;97244.66;10283186;28;20038;-52
2023/07/31 05:16:55;;;;;;;17.95;16.17;;;;;;;21.38;95.54;97242.78;10284779;28;20551;-53
2023/07/31 05:21:54;;;;;;;20.88;17.83;;;;;;;21.72;95.15;97241.00;10283135;28;20487;-52
2023/07/31 05:26:53;;;;;;;19.13;16.85;;;;;;;21.90;92.73;97240.00;10281873;28;20388;-50
2023/07/31 05:31:52;;;;;;;19.23;17.23;;;;;;;21.94;91.17;97238.00;10283466;28;20046;-51
2023/07/31 05:36:51;;;;;;;17.02;15.23;;;;;;;21.90;91.74;97240.00;10285323;28;20044;-49
2023/07/31 05:41:50;;;;;;;17.20;15.35;;;;;;;22.02;90.47;97235.84;10288783;28;20073;-52
2023/07/31 05:46:49;;;;;;;15.68;14.07;;;;;;;22.22;90.79;97234.72;10285732;28;20069;-52
2023/07/31 05:51:48;;;;;;;18.80;14.15;;;;;;;22.62;88.78;97239.53;10282834;28;20053;-50
2023/07/31 05:56:47;;;;;;;15.73;12.38;;;;;;;23.08;87.35;97239.50;10282140;28;20466;-51
2023/07/31 06:01:46;;;;;;;12.93;11.63;;;;;;;23.49;84.54;97244.13;10279608;28;20408;-50
2023/07/31 06:06:45;;;;;;;13.73;12.00;;;;;;;23.74;83.00;97232.84;10279290;28;20121;-50
2023/07/31 06:11:44;;;;;;;13.95;12.35;;;;;;;23.87;81.74;97249.69;10284727;28;20124;-51
2023/07/31 06:16:44;;;;;;;16.25;13.07;;;;;;;23.73;79.30;97231.16;10279739;28;20124;-51
2023/07/31 06:21:43;;;;;;;13.68;12.25;;;;;;;23.18;81.43;97267.13;10280768;28;20088;-50
2023/07/31 06:26:42;;;;;;;15.10;12.60;;;;;;;22.75;82.98;97254.63;10283249;28;20399;-51
2023/07/31 06:31:41;;;;;;;14.07;12.45;;;;;;;22.76;82.59;97266.94;10280983;28;20388;-48
2023/07/31 06:36:40;;;;;;;14.20;11.65;;;;;;;22.92;81.80;97268.66;10281577;28;20032;-50
2023/07/31 06:41:39;;;;;;;13.68;12.27;;;;;;;22.96;81.63;97267.56;10281959;28;20108;-52
2023/07/31 06:46:38;;;;;;;15.02;12.32;;;;;;;23.20;79.77;97258.16;10281427;28;20029;-52
2023/07/31 06:51:38;;;;;;;16.08;12.13;;;;;;;23.41;79.28;97268.38;10277291;28;20034;-49
2023/07/31 06:56:37;;;;;;;13.90;12.50;;;;;;;23.74;79.49;97254.06;10276903;28;20133;-52
2023/07/31 07:01:36;;;;;;;14.70;12.27;;;;;;;24.03;77.56;97255.72;10283936;28;20112;-51
2023/07/31 07:06:35;;;;;;;13.15;11.63;;;;;;;24.38;75.13;97252.66;10282899;28;20053;-52
2023/07/31 07:11:34;;;;;;;13.07;11.35;;;;;;;24.92;74.16;97253.56;10302636;28;21612;-53
2023/07/31 07:16:33;;;;;;;13.43;11.43;;;;;;;25.43;73.77;97258.94;10282960;28;20563;-50
2023/07/31 07:21:32;;;;;;;11.98;10.65;;;;;;;25.62;69.97;97254.09;10282335;28;20046;-52
2023/07/31 07:26:31;;;;;;;12.73;10.68;;;;;;;25.77;68.36;97246.84;10283098;28;20026;-52
2023/07/31 07:31:30;;;;;;;8.55;7.03;;;;;;;25.56;59.81;97248.38;10282800;28;20077;-49
2023/07/31 07:36:29;;;;;;;8.75;7.55;;;;;;;25.56;59.13;97253.69;10283479;28;20100;-51
2023/07/31 07:41:28;;;;;;;9.32;6.85;;;;;;;25.73;56.69;97251.50;10280461;28;20108;-50
2023/07/31 07:46:27;;;;;;;7.65;6.47;;;;;;;25.73;55.60;97262.16;10279203;28;20110;-51
2023/07/31 07:51:26;;;;;;;5.32;4.80;;;;;;;25.54;53.52;97256.44;10279349;28;20393;-51
2023/07/31 07:56:26;;;;;;;6.90;6.00;;;;;;;25.86;53.04;97259.50;10279432;28;20113;-48
2023/07/31 08:01:25;;;;;;;7.88;5.00;;;;;;;25.68;52.09;97242.19;10278110;28;20116;-50
2023/07/31 08:06:24;;;;;;;6.05;5.13;;;;;;;25.92;53.13;97260.84;10280709;28;20037;-51
2023/07/31 08:11:23;;;;;;;8.43;5.97;;;;;;;25.71;52.95;97269.41;10277377;28;20515;-52
2023/07/31 08:16:22;;;;;;;7.15;5.05;;;;;;;25.84;51.60;97260.56;10279621;28;20129;-51
2023/07/31 08:21:22;;;;;;;7.20;5.30;;;;;;;26.31;51.68;97261.63;10278573;28;20030;-50
2023/07/31 08:26:21;;;;;;;5.30;4.80;;;;;;;26.35;49.28;97269.28;10281143;28;20105;-50
2023/07/31 08:31:20;;;;;;;7.25;4.75;;;;;;;25.99;48.50;97267.41;10280327;28;20532;-47
2023/07/31 08:36:19;;;;;;;6.28;4.28;;;;;;;26.02;49.29;97269.88;10280856;28;20080;-50
2023/07/31 08:41:18;;;;;;;3.92;3.42;;;;;;;26.16;46.06;97263.59;10281600;28;20101;-50
2023/07/31 08:46:18;;;;;;;4.32;3.50;;;;;;;26.54;46.28;97266.13;10281819;28;20056;-50
2023/07/31 08:51:17;;;;;;;3.05;2.50;;;;;;;26.34;43.68;97256.09;10279350;28;20484;-53
2023/07/31 08:56:17;;;;;;;3.83;2.42;;;;;;;26.17;43.47;97282.06;10283621;28;20074;-51
2023/07/31 09:01:17;;;;;;;2.75;2.55;;;;;;;26.09;44.55;97252.53;10281793;28;20096;-52
2023/07/31 09:06:20;;;;;;;2.90;2.15;;;;;;;26.28;44.61;97264.53;10295737;28;20062;-51
2023/07/31 09:11:21;;;;;;;5.00;2.60;;;;;;;26.41;44.43;97270.63;10288441;28;20538;-51
2023/07/31 09:16:27;;;;;;;2.75;2.45;;;;;;;26.62;44.13;97264.72;10286539;28;20121;-51
2023/07/31 09:21:27;;;;;;;4.15;3.40;;;;;;;27.09;43.58;97255.84;10288258;28;20117;-50
2023/07/31 09:26:35;;;;;;;4.43;3.30;;;;;;;27.42;44.38;97260.41;10287307;28;20104;-48
2023/07/31 09:31:41;;;;;;;3.45;2.67;;;;;;;26.91;44.08;97274.06;10282816;28;20257;-52
2023/07/31 09:36:41;;;;;;;3.25;2.72;;;;;;;26.69;43.02;97250.81;10281276;28;20151;-52
2023/07/31 09:41:47;;;;;;;3.08;2.78;;;;;;;26.51;43.62;97230.91;10284199;28;20116;-49
2023/07/31 09:46:47;;;;;;;2.70;2.42;;;;;;;26.76;44.12;97261.88;10283178;28;20551;-50
2023/07/31 09:51:46;;;;;;;3.85;2.78;;;;;;;26.53;43.54;97261.78;10282687;28;20125;-50
2023/07/31 09:56:47;;;;;;;2.90;2.60;;;;;;;26.84;43.79;97263.97;10283641;28;20042;-50
2023/07/31 10:01:48;;;;;;;3.60;2.60;;;;;;;26.83;43.20;97265.78;10283586;28;20543;-50
2023/07/31 10:06:49;;;;;;;4.40;2.72;;;;;;;26.78;42.42;97275.91;10283021;28;20105;-51
2023/07/31 10:11:59;;;;;;;4.22;3.03;;;;;;;26.92;44.59;97267.78;10281189;28;20129;-52
2023/07/31 10:16:58;;;;;;;10.73;7.50;;;;;;;27.31;43.88;97247.06;10279536;28;20140;-49
2023/07/31 10:21:59;;;;;;;4.07;3.15;;;;;;;27.29;44.34;97256.16;10282289;28;20522;-52
2023/07/31 10:27:00;;;;;;;5.03;2.63;;;;;;;26.90;42.25;97255.53;10283708;28;20088;-49
2023/07/31 10:32:00;;;;;;;3.50;2.83;;;;;;;27.12;44.48;97249.41;10281676;28;20084;-49
2023/07/31 10:37:25;;;;;;;3.92;2.75;;;;;;;27.09;44.81;97263.81;10281589;28;20084;-51
2023/07/31 10:42:31;;;;;;;3.80;3.20;;;;;;;27.46;44.67;97268.16;10280942;28;20128;-52
2023/07/31 10:47:30;;;;;;;3.05;2.72;;;;;;;27.38;43.96;97258.94;10282697;28;20116;-52
2023/07/31 10:52:35;;;;;;;4.80;2.92;;;;;;;27.30;43.20;97260.50;10280793;28;20045;-53
2023/07/31 10:57:35;;;;;;;4.07;3.22;;;;;;;27.49;42.96;97265.28;10283627;28;20584;-51
2023/07/31 11:02:34;;;;;;;3.65;3.10;;;;;;;27.63;42.61;97246.38;10279171;28;20656;-52
2023/07/31 11:07:49;;;;;;;3.85;3.00;;;;;;;27.59;43.49;97223.63;10281062;28;20533;-51
2023/07/31 11:12:49;;;;;;;4.28;3.00;;;;;;;27.48;42.83;97232.47;10279544;28;20084;-49
2023/07/31 11:17:48;;;;;;;3.15;2.85;;;;;;;27.85;42.49;97231.38;10280783;28;20124;-52
2023/07/31 11:22:47;;;;;;;4.13;2.60;;;;;;;27.68;41.03;97230.03;10279456;28;20116;-52
2023/07/31 11:27:46;;;;;;;4.25;3.00;;;;;;;27.96;40.39;97226.03;10278494;28;20064;-51
2023/07/31 11:32:45;;;;;;;4.07;2.80;;;;;;;28.35;40.07;97210.47;10280332;28;20133;-52
2023/07/31 11:37:45;;;;;;;4.70;3.20;;;;;;;28.15;40.68;97206.75;10278913;28;20144;-50
2023/07/31 11:42:44;;;;;;;3.00;2.70;;;;;;;28.19;39.99;97209.03;10278663;28;20073;-50
2023/07/31 11:47:43;;;;;;;3.10;2.65;;;;;;;27.51;40.68;97188.72;10294726;28;20014;-51
2023/07/31 11:52:45;;;;;;;5.13;2.83;;;;;;;27.51;41.26;97207.38;10277702;28;20117;-50
2023/07/31 11:57:45;;;;;;;4.05;2.75;;;;;;;27.26;41.93;97201.28;10278439;28;20101;-52
2023/07/31 12:02:44;;;;;;;3.00;2.55;;;;;;;27.33;41.21;97177.66;10278953;28;20062;-51
2023/07/31 12:07:49;;;;;;;3.85;2.50;;;;;;;27.90;41.49;97202.53;10277732;28;20061;-49
2023/07/31 12:13:05;;;;;;;8.15;3.25;;;;;;;28.20;40.53;97180.56;10278332;28;20124;-51
2023/07/31 12:18:06;;;;;;;3.95;2.63;;;;;;;28.17;40.40;97180.78;10278230;28;20129;-51
2023/07/31 12:23:05;;;;;;;2.83;2.60;;;;;;;28.16;40.12;97179.94;10278445;28;20121;-50
2023/07/31 12:28:06;;;;;;;3.95;2.28;;;;;;;28.24;40.11;97176.63;10276672;28;20444;-50
2023/07/31 12:33:14;;;;;;;5.38;2.80;;;;;;;28.25;40.88;97155.19;10278161;28;20061;-51
2023/07/31 12:38:13;;;;;;;4.35;2.55;;;;;;;28.42;39.54;97148.44;10284296;28;20136;-52
2023/07/31 12:43:13;;;;;;;2.67;2.30;;;;;;;28.01;39.87;97130.50;10291414;28;20462;-51
2023/07/31 12:48:13;;;;;;;3.65;2.45;;;;;;;28.23;39.54;97142.94;10286250;28;20126;-49
2023/07/31 12:53:12;;;;;;;2.85;2.20;;;;;;;28.04;39.08;97151.59;10284629;28;20060;-53
2023/07/31 12:58:11;;;;;;;2.15;1.92;;;;;;;27.55;39.52;97164.38;10286579;28;20120;-50
2023/07/31 13:03:10;;;;;;;2.42;1.98;;;;;;;27.65;40.13;97153.81;10282059;28;20105;-51
2023/07/31 13:08:09;;;;;;;2.45;2.10;;;;;;;27.74;39.77;97137.09;10283279;28;20069;-55
2023/07/31 13:13:09;;;;;;;4.40;2.50;;;;;;;27.27;40.06;97123.06;10284925;28;20041;-53
2023/07/31 13:18:08;;;;;;;4.90;2.47;;;;;;;27.98;39.06;97139.56;10284209;28;20465;-50
2023/07/31 13:23:07;;;;;;;3.40;2.30;;;;;;;28.49;38.33;97137.25;10284231;28;20410;-52
2023/07/31 13:28:06;;;;;;;2.50;2.30;;;;;;;29.01;38.28;97139.03;10287338;28;20105;-51
2023/07/31 13:33:05;;;;;;;4.07;2.40;;;;;;;29.07;37.29;97135.84;10286073;28;20117;-51
2023/07/31 13:38:05;;;;;;;2.40;2.20;;;;;;;28.20;37.67;97125.38;10289372;28;20042;-52
2023/07/31 13:43:04;;;;;;;4.53;2.78;;;;;;;28.11;38.32;97123.47;10286380;28;20061;-50
2023/07/31 13:48:03;;;;;;;3.33;2.80;;;;;;;28.03;38.97;97147.19;10284593;28;20104;-51
2023/07/31 13:53:02;;;;;;;4.22;3.03;;;;;;;27.91;38.96;97140.22;10288758;28;20073;-51
2023/07/31 13:58:01;;;;;;;5.75;3.55;;;;;;;28.51;38.75;97138.81;10284730;28;20145;-52
2023/07/31 14:03:00;;;;;;;3.67;3.28;;;;;;;28.94;38.11;97140.53;10285506;28;20158;-52
2023/07/31 14:07:59;;;;;;;2.97;2.67;;;;;;;28.35;37.51;97154.41;10286228;28;20033;-52
2023/07/31 14:12:58;;;;;;;4.75;3.83;;;;;;;28.33;38.48;97143.03;10285613;28;20081;-54
2023/07/31 14:17:57;;;;;;;5.85;3.80;;;;;;;28.51;37.42;97141.50;10268480;28;20040;-51
2023/07/31 14:22:56;;;;;;;3.95;3.20;;;;;;;28.84;37.22;97151.16;10285169;28;20030;-51
2023/07/31 14:27:55;;;;;;;3.85;3.22;;;;;;;28.70;37.01;97113.28;10283470;28;20084;-52
2023/07/31 14:32:54;;;;;;;4.55;3.60;;;;;;;28.89;37.18;97150.78;10279486;28;20616;-51
2023/07/31 14:37:53;;;;;;;4.40;3.42;;;;;;;28.93;37.46;97141.53;10282666;28;20034;-52
2023/07/31 14:42:52;;;;;;;4.30;3.70;;;;;;;28.66;37.80;97140.22;10282886;28;20108;-52
2023/07/31 14:47:51;;;;;;;4.93;3.80;;;;;;;28.56;38.43;97146.44;10278748;28;20113;-53
2023/07/31 14:52:50;;;;;;;4.82;3.60;;;;;;;28.32;38.02;97150.19;10281239;28;20163;-50
2023/07/31 14:57:49;;;;;;;5.50;3.63;;;;;;;27.86;38.67;97145.06;10278328;28;20125;-51
2023/07/31 15:02:48;;;;;;;6.15;4.18;;;;;;;27.57;38.68;97154.44;10283689;28;20032;-51
2023/07/31 15:07:47;;;;;;;6.03;4.68;;;;;;;27.50;39.38;97155.91;10279375;28;20130;-51
2023/07/31 15:12:46;;;;;;;9.00;8.10;;;;;;;26.87;40.26;97077.41;10279880;28;20092;-51
2023/07/31 15:17:45;;;;;;;5.85;5.25;;;;;;;27.63;40.21;97145.09;10279893;28;20101;-51
2023/07/31 15:22:44;;;;;;;6.28;4.30;;;;;;;27.31;40.23;97147.66;10279439;28;20029;-50
2023/07/31 15:27:43;;;;;;;4.72;4.30;;;;;;;27.25;40.39;97148.97;10280897;28;20040;-51
2023/07/31 15:32:45;;;;;;;6.50;4.60;;;;;;;27.01;40.50;97148.22;10280085;28;20140;-50
2023/07/31 15:37:44;;;;;;;6.38;4.68;;;;;;;26.93;40.98;97155.00;10282041;28;20177;-51
2023/07/31 15:42:43;;;;;;;5.50;4.68;;;;;;;26.84;40.87;97153.03;10276124;28;20465;-52
2023/07/31 15:47:42;;;;;;;15.43;13.10;;;;;;;27.04;40.60;97143.50;10273272;28;20604;-53
2023/07/31 15:52:41;;;;;;;12.10;6.90;;;;;;;26.82;40.37;97165.59;10277208;28;20045;-52
2023/07/31 15:57:40;;;;;;;12.77;7.82;;;;;;;26.65;41.33;97168.66;10277488;28;20120;-50
2023/07/31 16:02:39;;;;;;;5.00;4.35;;;;;;;26.60;41.37;97177.00;10276180;28;20033;-51
2023/07/31 16:07:40;;;;;;;22.95;20.38;;;;;;;26.65;41.34;97181.97;10280015;28;20415;-51
2023/07/31 16:12:39;;;;;;;10.80;7.63;;;;;;;26.39;41.85;97173.28;10279612;28;20462;-52
2023/07/31 16:17:38;;;;;;;5.20;4.00;;;;;;;26.34;41.89;97186.91;10285725;28;20407;-52
2023/07/31 16:22:37;;;;;;;13.50;7.35;;;;;;;26.28;42.54;97182.91;10286849;28;20171;-49
2023/07/31 16:27:36;;;;;;;8.18;5.15;;;;;;;26.33;42.88;97198.53;10288804;28;20113;-50
2023/07/31 16:32:36;;;;;;;4.32;3.92;;;;;;;26.23;41.78;97186.84;10285899;28;20132;-52
2023/07/31 16:37:36;;;;;;;4.65;3.88;;;;;;;26.27;41.58;97196.31;10287522;28;20124;-50
2023/07/31 16:42:36;;;;;;;11.73;7.82;;;;;;;26.30;41.79;97191.63;10287080;28;20681;-52
2023/07/31 16:47:35;;;;;;;4.53;4.13;;;;;;;26.27;41.18;97206.97;10287032;28;20129;-51
2023/07/31 16:52:34;;;;;;;4.30;3.90;;;;;;;25.98;41.45;97207.25;10283974;28;20112;-49
2023/07/31 16:57:33;;;;;;;5.13;4.45;;;;;;;25.95;41.43;97208.31;10289791;28;20095;-50
2023/07/31 17:02:31;;;;;;;13.52;9.68;;;;;;;25.87;41.85;97215.97;10288381;28;20052;-52
2023/07/31 17:07:30;;;;;;;7.10;3.80;;;;;;;25.62;41.86;97166.41;10286766;28;20138;-52
2023/07/31 17:12:29;;;;;;;5.15;3.20;;;;;;;25.60;41.61;97200.22;10282732;28;20034;-51
2023/07/31 17:17:28;;;;;;;4.35;3.58;;;;;;;25.65;41.33;97214.03;10285093;28;20222;-50
2023/07/31 17:22:27;;;;;;;4.18;3.30;;;;;;;25.68;41.00;97211.13;10281504;28;20144;-52
2023/07/31 17:27:27;;;;;;;4.65;3.80;;;;;;;25.77;40.96;97208.78;10285280;28;20041;-49
2023/07/31 17:32:26;;;;;;;4.68;3.80;;;;;;;25.69;41.28;97212.84;10284737;28;20073;-49
2023/07/31 17:37:25;;;;;;;4.95;3.70;;;;;;;25.69;41.62;97218.16;10283791;28;20461;-51
2023/07/31 17:42:24;;;;;;;54.72;45.70;;;;;;;25.63;41.76;97223.91;10284834;28;20562;-51
2023/07/31 17:47:23;;;;;;;99.30;88.72;;;;;;;25.54;42.29;97232.53;10282838;28;20483;-52
2023/07/31 17:52:22;;;;;;;26.92;18.10;;;;;;;25.38;42.91;97221.22;10281295;28;20041;-49
2023/07/31 17:57:21;;;;;;;6.18;4.10;;;;;;;25.35;42.66;97224.13;10284847;28;20062;-49
2023/07/31 18:02:20;;;;;;;5.72;4.80;;;;;;;25.18;43.38;97236.75;10282278;28;20073;-50
2023/07/31 18:07:19;;;;;;;6.82;4.93;;;;;;;24.94;44.70;97233.09;10280241;28;20050;-51
2023/07/31 18:12:18;;;;;;;7.20;4.97;;;;;;;24.79;45.76;97237.59;10280787;28;20121;-52
2023/07/31 18:17:17;;;;;;;8.15;5.10;;;;;;;24.59;46.57;97249.53;10278559;28;20141;-52
2023/07/31 18:22:17;;;;;;;6.20;4.85;;;;;;;24.38;47.70;97260.59;10279222;28;20026;-50
2023/07/31 18:27:17;;;;;;;9.27;5.05;;;;;;;24.13;48.21;97263.09;10280560;28;20121;-49
2023/07/31 18:32:16;;;;;;;5.25;4.75;;;;;;;23.94;49.19;97271.38;10279056;28;20092;-50
2023/07/31 18:37:15;;;;;;;6.32;5.00;;;;;;;23.75;49.82;97271.66;10280593;28;20069;-52
2023/07/31 18:42:14;;;;;;;6.20;4.50;;;;;;;23.51;50.33;97282.78;10277671;28;20113;-50
2023/07/31 18:47:13;;;;;;;7.20;4.90;;;;;;;23.32;50.58;97287.47;10279778;28;20026;-52
2023/07/31 18:52:12;;;;;;;6.95;4.93;;;;;;;23.21;51.36;97296.91;10277775;28;20551;-51
2023/07/31 18:57:11;;;;;;;7.57;5.57;;;;;;;22.98;52.61;97305.38;10281430;28;20538;-51
2023/07/31 19:02:10;;;;;;;8.93;4.95;;;;;;;22.72;52.67;97310.34;10279208;28;20026;-53
2023/07/31 19:07:09;;;;;;;6.97;5.10;;;;;;;22.50;53.19;97310.69;10277369;28;20037;-50
2023/07/31 19:12:08;;;;;;;9.05;5.38;;;;;;;22.41;53.37;97316.47;10280198;28;20112;-51
2023/07/31 19:17:07;;;;;;;8.00;5.85;;;;;;;22.26;53.63;97306.78;10278745;28;20041;-51
2023/07/31 19:22:06;;;;;;;6.25;5.18;;;;;;;22.22;54.57;97321.94;10277907;28;20056;-51
2023/07/31 19:27:05;;;;;;;7.45;5.00;;;;;;;22.12;54.75;97326.88;10280031;28;20113;-52
2023/07/31 19:32:05;;;;;;;6.07;4.90;;;;;;;22.02;55.26;97314.28;10277367;28;20137;-51
2023/07/31 19:37:03;;;;;;;7.80;5.80;;;;;;;21.86;56.28;97312.41;10280131;28;20108;-52
2023/07/31 19:42:03;;;;;;;7.78;5.93;;;;;;;21.69;56.88;97312.47;10276627;28;20034;-50
2023/07/31 19:47:02;;;;;;;8.98;6.70;;;;;;;21.61;57.50;97317.28;10276454;28;20571;-50
2023/07/31 19:52:01;;;;;;;7.47;6.15;;;;;;;21.50;58.23;97318.72;10281832;28;20852;-53
2023/07/31 19:57:00;;;;;;;7.22;6.40;;;;;;;21.29;59.96;97317.19;10278955;28;20034;-53
2023/07/31 20:01:59;;;;;;;7.13;5.68;;;;;;;21.20;59.95;97328.19;10279959;28;20046;-52
2023/07/31 20:06:57;;;;;;;6.07;5.18;;;;;;;21.00;60.09;97308.91;10279805;28;20042;-52
2023/07/31 20:11:57;;;;;;;6.72;5.70;;;;;;;21.08;60.34;97330.50;10278517;28;20109;-50
2023/07/31 20:16:56;;;;;;;6.93;5.70;;;;;;;20.98;61.21;97333.66;10278543;28;20137;-50
2023/07/31 20:21:55;;;;;;;7.28;6.03;;;;;;;20.91;62.56;97333.97;10274709;28;20097;-49
2023/07/31 20:26:54;;;;;;;9.73;8.15;;;;;;;20.83;63.23;97335.28;10275979;28;20073;-51
2023/07/31 20:31:53;;;;;;;8.88;5.93;;;;;;;20.76;63.44;97340.00;10277973;28;20040;-49
2023/07/31 20:36:52;;;;;;;6.75;6.05;;;;;;;20.69;64.16;97333.31;10277728;28;20104;-51
2023/07/31 20:41:52;;;;;;;7.28;6.10;;;;;;;20.66;64.84;97342.22;10278268;28;20030;-50
2023/07/31 20:46:51;;;;;;;7.75;6.15;;;;;;;20.64;66.04;97338.81;10278313;28;20129;-50
2023/07/31 20:51:50;;;;;;;9.18;6.30;;;;;;;20.08;69.27;97332.59;10280299;28;20128;-52
2023/07/31 20:56:49;;;;;;;7.47;6.40;;;;;;;20.21;69.37;97361.91;10281392;28;20415;-51
2023/07/31 21:01:49;;;;;;;7.65;6.80;;;;;;;20.20;69.72;97357.53;10284852;28;20050;-51
2023/07/31 21:06:48;;;;;;;8.90;7.10;;;;;;;19.82;70.87;97346.13;10283317;28;20137;-52
2023/07/31 21:11:47;;;;;;;8.65;7.35;;;;;;;19.81;70.86;97365.44;10287320;28;20040;-51
2023/07/31 21:16:46;;;;;;;10.25;6.97;;;;;;;19.83;70.98;97368.88;10287293;28;20030;-53
2023/07/31 21:21:45;;;;;;;10.02;6.75;;;;;;;19.17;70.42;97254.19;10284989;28;20583;-51
2023/07/31 21:26:44;;;;;;;6.75;6.05;;;;;;;19.83;70.63;97369.72;10283739;28;20511;-49
2023/07/31 21:31:43;;;;;;;7.10;6.35;;;;;;;19.76;71.68;97368.28;10282299;28;20041;-49
2023/07/31 21:36:41;;;;;;;8.38;6.72;;;;;;;19.72;71.83;97366.75;10283272;28;20431;-49
2023/07/31 21:41:41;;;;;;;9.50;7.05;;;;;;;19.62;72.30;97368.03;10284037;28;20044;-52
2023/07/31 21:46:40;;;;;;;8.68;7.30;;;;;;;19.56;72.81;97366.53;10281672;28;20149;-51
2023/07/31 21:51:39;;;;;;;12.15;7.32;;;;;;;19.55;72.55;97363.94;10282678;28;20109;-50
2023/07/31 21:56:38;;;;;;;8.57;7.50;;;;;;;19.45;72.93;97355.59;10280548;28;20029;-51
2023/07/31 22:01:37;;;;;;;8.05;7.18;;;;;;;19.38;73.69;97365.50;10285336;28;20117;-49
2023/07/31 22:06:36;;;;;;;12.55;8.00;;;;;;;19.37;73.47;97349.78;10281526;28;20042;-52
2023/07/31 22:11:35;;;;;;;10.25;7.95;;;;;;;19.28;73.79;97355.47;10282102;28;20024;-52
2023/07/31 22:16:34;;;;;;;9.45;7.65;;;;;;;19.09;74.68;97336.94;10284150;28;20029;-51
2023/07/31 22:21:33;;;;;;;8.25;7.38;;;;;;;19.12;75.99;97360.50;10282503;28;20481;-50
2023/07/31 22:26:32;;;;;;;8.05;7.22;;;;;;;19.02;76.97;97355.63;10282882;28;20512;-51
2023/07/31 22:31:31;;;;;;;11.75;8.10;;;;;;;18.74;78.07;97360.31;10282774;28;20164;-52
2023/07/31 22:36:30;;;;;;;9.18;8.15;;;;;;;18.67;78.63;97358.81;10277463;28;20038;-52
2023/07/31 22:41:29;;;;;;;10.55;9.13;;;;;;;18.65;78.34;97356.25;10280725;28;20117;-50
2023/07/31 22:46:28;;;;;;;10.02;8.77;;;;;;;18.61;79.00;97355.50;10280306;28;20116;-50
2023/07/31 22:51:27;;;;;;;10.00;8.32;;;;;;;18.59;78.52;97362.56;10288109;28;20452;-50
2023/07/31 22:56:26;;;;;;;9.77;8.77;;;;;;;18.57;78.46;97353.91;10280845;28;20619;-52
2023/07/31 23:01:27;;;;;;;10.70;8.18;;;;;;;18.41;80.54;97352.81;10279734;28;20555;-52